KFFL/FFL METAR and TAF weather

Enter ICAO airport designator
Station Type Date Time Source
KFFL METAR 2020/07/12 20:15 UTC NOAA

KFFL 122015Z AUTO 36008KT 10SM SCT049 SCT060 28/18 A2992 RMK A01


Station Type Date Time Source
KFFL Decoded METAR 2020/07/12 20:15 UTC NOAA

Fair Field, IA, United States (KFFL) 41-03N 091-59W
Jul 12, 2020 - 04:15 PM EDT / 2020.07.12 2015 UTC
Wind: from the N (360 degrees) at 9 MPH (8 KT):0
Visibility: 10 mile(s):0
Sky conditions: partly cloudy
Temperature: 82 F (28 C)
Dew Point: 64 F (18 C)
Relative Humidity: 54%
Pressure (altimeter): 29.92 in. Hg (1013 hPa)
ob: KFFL 122015Z AUTO 36008KT 10SM SCT049 SCT060 28/18 A2992 RMK A01
cycle: 20

Station Type Date Time Source
KFFL TAF UTC NOAA

Error!

Example: see airport list